sensor_id;sensor_type;location;lat;lon;timestamp;P1;durP1;ratioP1;P2;durP2;ratioP2
15049;SDS011;7622;42.724;23.250;2023-12-20T00:02:13;65.17;;;30.63;;
15049;SDS011;7622;42.724;23.250;2023-12-20T00:04:40;62.43;;;32.03;;
15049;SDS011;7622;42.724;23.250;2023-12-20T00:07:07;47.07;;;26.23;;
15049;SDS011;7622;42.724;23.250;2023-12-20T00:09:33;54.20;;;27.97;;
15049;SDS011;7622;42.724;23.250;2023-12-20T00:12:00;56.10;;;27.80;;
15049;SDS011;7622;42.724;23.250;2023-12-20T00:14:28;61.13;;;29.40;;
15049;SDS011;7622;42.724;23.250;2023-12-20T00:16:55;64.57;;;30.97;;
15049;SDS011;7622;42.724;23.250;2023-12-20T00:19:22;57.60;;;29.70;;
15049;SDS011;7622;42.724;23.250;2023-12-20T00:21:49;61.80;;;30.03;;
15049;SDS011;7622;42.724;23.250;2023-12-20T00:24:15;58.57;;;29.63;;
15049;SDS011;7622;42.724;23.250;2023-12-20T00:26:42;58.63;;;28.83;;
15049;SDS011;7622;42.724;23.250;2023-12-20T00:29:09;57.60;;;30.00;;
15049;SDS011;7622;42.724;23.250;2023-12-20T00:31:37;60.47;;;30.63;;
15049;SDS011;7622;42.724;23.250;2023-12-20T00:34:04;53.50;;;26.90;;
15049;SDS011;7622;42.724;23.250;2023-12-20T00:36:31;53.73;;;27.40;;
15049;SDS011;7622;42.724;23.250;2023-12-20T00:38:57;53.00;;;27.23;;
15049;SDS011;7622;42.724;23.250;2023-12-20T00:41:24;51.37;;;27.67;;
15049;SDS011;7622;42.724;23.250;2023-12-20T00:43:51;58.00;;;28.17;;
15049;SDS011;7622;42.724;23.250;2023-12-20T00:46:17;56.17;;;28.20;;
15049;SDS011;7622;42.724;23.250;2023-12-20T00:48:46;58.97;;;30.37;;
15049;SDS011;7622;42.724;23.250;2023-12-20T00:51:12;55.07;;;29.53;;
15049;SDS011;7622;42.724;23.250;2023-12-20T00:53:39;55.47;;;28.93;;
15049;SDS011;7622;42.724;23.250;2023-12-20T00:56:06;56.93;;;29.00;;
15049;SDS011;7622;42.724;23.250;2023-12-20T00:58:33;52.30;;;28.00;;
15049;SDS011;7622;42.724;23.250;2023-12-20T01:01:00;57.57;;;30.30;;
15049;SDS011;7622;42.724;23.250;2023-12-20T01:03:27;55.23;;;29.30;;
15049;SDS011;7622;42.724;23.250;2023-12-20T01:05:55;60.70;;;29.47;;
15049;SDS011;7622;42.724;23.250;2023-12-20T01:08:22;54.20;;;29.00;;
15049;SDS011;7622;42.724;23.250;2023-12-20T01:10:49;60.73;;;29.30;;
15049;SDS011;7622;42.724;23.250;2023-12-20T01:13:15;48.63;;;26.20;;
15049;SDS011;7622;42.724;23.250;2023-12-20T01:15:42;50.37;;;25.33;;
15049;SDS011;7622;42.724;23.250;2023-12-20T01:18:09;52.33;;;25.30;;
15049;SDS011;7622;42.724;23.250;2023-12-20T01:20:35;48.33;;;25.40;;
15049;SDS011;7622;42.724;23.250;2023-12-20T01:23:04;52.00;;;24.97;;
15049;SDS011;7622;42.724;23.250;2023-12-20T01:25:30;41.10;;;24.03;;
15049;SDS011;7622;42.724;23.250;2023-12-20T01:27:57;50.73;;;24.30;;
15049;SDS011;7622;42.724;23.250;2023-12-20T01:30:24;42.40;;;23.43;;
15049;SDS011;7622;42.724;23.250;2023-12-20T01:32:50;50.03;;;23.07;;
15049;SDS011;7622;42.724;23.250;2023-12-20T01:35:17;45.87;;;22.90;;
15049;SDS011;7622;42.724;23.250;2023-12-20T01:37:44;44.40;;;22.10;;
15049;SDS011;7622;42.724;23.250;2023-12-20T01:40:12;33.73;;;19.90;;
15049;SDS011;7622;42.724;23.250;2023-12-20T01:42:39;39.13;;;21.87;;
15049;SDS011;7622;42.724;23.250;2023-12-20T01:45:06;37.40;;;21.33;;
15049;SDS011;7622;42.724;23.250;2023-12-20T01:47:34;40.83;;;20.73;;
15049;SDS011;7622;42.724;23.250;2023-12-20T01:50:02;38.57;;;21.47;;
15049;SDS011;7622;42.724;23.250;2023-12-20T01:52:30;48.67;;;21.53;;
15049;SDS011;7622;42.724;23.250;2023-12-20T01:54:58;50.17;;;25.73;;
15049;SDS011;7622;42.724;23.250;2023-12-20T01:57:29;53.97;;;30.47;;
15049;SDS011;7622;42.724;23.250;2023-12-20T01:59:57;58.50;;;29.57;;
15049;SDS011;7622;42.724;23.250;2023-12-20T02:02:24;58.63;;;28.80;;
15049;SDS011;7622;42.724;23.250;2023-12-20T02:04:53;57.30;;;30.90;;
15049;SDS011;7622;42.724;23.250;2023-12-20T02:07:20;67.30;;;33.57;;
15049;SDS011;7622;42.724;23.250;2023-12-20T02:09:48;84.23;;;41.23;;
15049;SDS011;7622;42.724;23.250;2023-12-20T02:12:15;94.20;;;43.07;;
15049;SDS011;7622;42.724;23.250;2023-12-20T02:14:43;86.73;;;43.13;;
15049;SDS011;7622;42.724;23.250;2023-12-20T02:17:10;90.53;;;41.67;;
15049;SDS011;7622;42.724;23.250;2023-12-20T02:19:37;98.17;;;44.63;;
15049;SDS011;7622;42.724;23.250;2023-12-20T02:22:09;100.33;;;47.20;;
15049;SDS011;7622;42.724;23.250;2023-12-20T02:24:36;103.53;;;43.93;;
15049;SDS011;7622;42.724;23.250;2023-12-20T02:27:03;120.53;;;44.97;;
15049;SDS011;7622;42.724;23.250;2023-12-20T02:29:32;97.57;;;40.47;;
15049;SDS011;7622;42.724;23.250;2023-12-20T02:31:59;98.07;;;41.83;;
15049;SDS011;7622;42.724;23.250;2023-12-20T02:34:26;96.00;;;39.57;;
15049;SDS011;7622;42.724;23.250;2023-12-20T02:36:53;117.10;;;44.27;;
15049;SDS011;7622;42.724;23.250;2023-12-20T02:39:22;128.70;;;45.23;;
15049;SDS011;7622;42.724;23.250;2023-12-20T02:41:52;111.83;;;42.43;;
15049;SDS011;7622;42.724;23.250;2023-12-20T02:44:21;128.07;;;41.87;;
15049;SDS011;7622;42.724;23.250;2023-12-20T02:46:48;123.03;;;41.53;;
15049;SDS011;7622;42.724;23.250;2023-12-20T02:49:14;115.13;;;39.90;;
15049;SDS011;7622;42.724;23.250;2023-12-20T02:51:41;135.60;;;39.17;;
15049;SDS011;7622;42.724;23.250;2023-12-20T02:54:08;94.90;;;34.87;;
15049;SDS011;7622;42.724;23.250;2023-12-20T02:56:36;102.10;;;34.87;;
15049;SDS011;7622;42.724;23.250;2023-12-20T02:59:02;90.67;;;33.53;;
15049;SDS011;7622;42.724;23.250;2023-12-20T03:01:31;90.63;;;35.37;;
15049;SDS011;7622;42.724;23.250;2023-12-20T03:03:57;130.87;;;35.07;;
15049;SDS011;7622;42.724;23.250;2023-12-20T03:06:24;76.83;;;35.60;;
15049;SDS011;7622;42.724;23.250;2023-12-20T03:08:51;84.40;;;37.67;;
15049;SDS011;7622;42.724;23.250;2023-12-20T03:11:18;87.20;;;37.40;;
15049;SDS011;7622;42.724;23.250;2023-12-20T03:13:46;98.47;;;38.50;;
15049;SDS011;7622;42.724;23.250;2023-12-20T03:16:13;83.20;;;36.80;;
15049;SDS011;7622;42.724;23.250;2023-12-20T03:18:41;85.63;;;35.60;;
15049;SDS011;7622;42.724;23.250;2023-12-20T03:21:08;96.87;;;39.03;;
15049;SDS011;7622;42.724;23.250;2023-12-20T03:23:34;81.00;;;35.33;;
15049;SDS011;7622;42.724;23.250;2023-12-20T03:26:01;80.57;;;34.23;;
15049;SDS011;7622;42.724;23.250;2023-12-20T03:28:29;77.47;;;33.90;;
15049;SDS011;7622;42.724;23.250;2023-12-20T03:30:57;74.67;;;30.47;;
15049;SDS011;7622;42.724;23.250;2023-12-20T03:33:24;81.93;;;34.53;;
15049;SDS011;7622;42.724;23.250;2023-12-20T03:35:50;72.40;;;31.77;;
15049;SDS011;7622;42.724;23.250;2023-12-20T03:38:17;65.77;;;30.23;;
15049;SDS011;7622;42.724;23.250;2023-12-20T03:40:44;56.30;;;27.33;;
15049;SDS011;7622;42.724;23.250;2023-12-20T03:43:10;58.67;;;28.07;;
15049;SDS011;7622;42.724;23.250;2023-12-20T03:45:37;80.50;;;31.33;;
15049;SDS011;7622;42.724;23.250;2023-12-20T03:48:06;107.53;;;33.40;;
15049;SDS011;7622;42.724;23.250;2023-12-20T03:50:33;95.33;;;36.27;;
15049;SDS011;7622;42.724;23.250;2023-12-20T03:53:00;134.40;;;37.70;;
15049;SDS011;7622;42.724;23.250;2023-12-20T03:55:27;70.93;;;30.47;;
15049;SDS011;7622;42.724;23.250;2023-12-20T03:57:54;75.50;;;32.43;;
15049;SDS011;7622;42.724;23.250;2023-12-20T04:00:21;117.67;;;35.13;;
15049;SDS011;7622;42.724;23.250;2023-12-20T04:02:47;89.03;;;33.33;;
15049;SDS011;7622;42.724;23.250;2023-12-20T04:05:15;93.87;;;34.37;;
15049;SDS011;7622;42.724;23.250;2023-12-20T04:07:42;83.77;;;32.83;;
15049;SDS011;7622;42.724;23.250;2023-12-20T04:10:09;113.07;;;33.47;;
15049;SDS011;7622;42.724;23.250;2023-12-20T04:12:36;79.17;;;32.07;;
15049;SDS011;7622;42.724;23.250;2023-12-20T04:15:03;97.07;;;35.43;;
15049;SDS011;7622;42.724;23.250;2023-12-20T04:17:34;80.37;;;31.43;;
15049;SDS011;7622;42.724;23.250;2023-12-20T04:20:01;77.57;;;30.80;;
15049;SDS011;7622;42.724;23.250;2023-12-20T04:22:29;95.37;;;30.77;;
15049;SDS011;7622;42.724;23.250;2023-12-20T04:24:56;82.13;;;29.83;;
15049;SDS011;7622;42.724;23.250;2023-12-20T04:27:23;86.30;;;32.10;;
15049;SDS011;7622;42.724;23.250;2023-12-20T04:29:49;92.07;;;34.47;;
15049;SDS011;7622;42.724;23.250;2023-12-20T04:32:16;87.83;;;32.50;;
15049;SDS011;7622;42.724;23.250;2023-12-20T04:34:43;94.80;;;31.53;;
15049;SDS011;7622;42.724;23.250;2023-12-20T04:37:09;82.80;;;30.17;;
15049;SDS011;7622;42.724;23.250;2023-12-20T04:39:38;77.50;;;28.80;;
15049;SDS011;7622;42.724;23.250;2023-12-20T04:42:06;78.87;;;29.67;;
15049;SDS011;7622;42.724;23.250;2023-12-20T04:44:33;76.40;;;29.53;;
15049;SDS011;7622;42.724;23.250;2023-12-20T04:47:00;77.13;;;27.53;;
15049;SDS011;7622;42.724;23.250;2023-12-20T04:49:27;73.83;;;28.63;;
15049;SDS011;7622;42.724;23.250;2023-12-20T04:51:53;76.77;;;27.67;;
15049;SDS011;7622;42.724;23.250;2023-12-20T04:54:20;77.00;;;28.50;;
15049;SDS011;7622;42.724;23.250;2023-12-20T04:56:49;135.70;;;31.47;;
15049;SDS011;7622;42.724;23.250;2023-12-20T04:59:15;106.40;;;34.37;;
15049;SDS011;7622;42.724;23.250;2023-12-20T05:01:42;114.57;;;33.03;;
15049;SDS011;7622;42.724;23.250;2023-12-20T05:04:09;97.70;;;31.60;;
15049;SDS011;7622;42.724;23.250;2023-12-20T05:06:36;115.43;;;34.33;;
15049;SDS011;7622;42.724;23.250;2023-12-20T05:09:02;99.27;;;32.30;;
15049;SDS011;7622;42.724;23.250;2023-12-20T05:11:29;92.20;;;32.17;;
15049;SDS011;7622;42.724;23.250;2023-12-20T05:13:57;83.70;;;32.33;;
15049;SDS011;7622;42.724;23.250;2023-12-20T05:16:24;111.30;;;32.80;;
15049;SDS011;7622;42.724;23.250;2023-12-20T05:18:51;86.53;;;31.17;;
15049;SDS011;7622;42.724;23.250;2023-12-20T05:21:22;115.60;;;33.83;;
15049;SDS011;7622;42.724;23.250;2023-12-20T05:23:51;120.40;;;32.67;;
15049;SDS011;7622;42.724;23.250;2023-12-20T05:26:18;90.07;;;30.70;;
15049;SDS011;7622;42.724;23.250;2023-12-20T05:28:45;104.93;;;32.63;;
15049;SDS011;7622;42.724;23.250;2023-12-20T05:31:13;86.87;;;29.33;;
15049;SDS011;7622;42.724;23.250;2023-12-20T05:33:40;85.13;;;30.40;;
15049;SDS011;7622;42.724;23.250;2023-12-20T05:36:06;96.73;;;33.67;;
15049;SDS011;7622;42.724;23.250;2023-12-20T05:38:36;108.10;;;31.60;;
15049;SDS011;7622;42.724;23.250;2023-12-20T05:41:03;111.70;;;33.97;;
15049;SDS011;7622;42.724;23.250;2023-12-20T05:43:30;97.90;;;31.77;;
15049;SDS011;7622;42.724;23.250;2023-12-20T05:45:56;84.00;;;32.03;;
15049;SDS011;7622;42.724;23.250;2023-12-20T05:48:24;85.97;;;31.77;;
15049;SDS011;7622;42.724;23.250;2023-12-20T05:50:51;101.23;;;33.80;;
15049;SDS011;7622;42.724;23.250;2023-12-20T05:53:18;77.30;;;31.83;;
15049;SDS011;7622;42.724;23.250;2023-12-20T05:55:44;120.20;;;32.37;;
15049;SDS011;7622;42.724;23.250;2023-12-20T05:58:11;75.27;;;28.53;;
15049;SDS011;7622;42.724;23.250;2023-12-20T06:00:38;87.47;;;32.47;;
15049;SDS011;7622;42.724;23.250;2023-12-20T06:03:05;110.10;;;32.87;;
15049;SDS011;7622;42.724;23.250;2023-12-20T06:05:33;85.53;;;31.60;;
15049;SDS011;7622;42.724;23.250;2023-12-20T06:07:59;85.40;;;32.37;;
15049;SDS011;7622;42.724;23.250;2023-12-20T06:10:28;87.47;;;31.67;;
15049;SDS011;7622;42.724;23.250;2023-12-20T06:12:55;119.93;;;34.53;;
15049;SDS011;7622;42.724;23.250;2023-12-20T06:15:23;103.10;;;31.80;;
15049;SDS011;7622;42.724;23.250;2023-12-20T06:17:50;105.20;;;33.60;;
15049;SDS011;7622;42.724;23.250;2023-12-20T06:20:17;86.70;;;27.77;;
15049;SDS011;7622;42.724;23.250;2023-12-20T06:22:45;71.17;;;25.20;;
15049;SDS011;7622;42.724;23.250;2023-12-20T06:25:12;82.53;;;24.00;;
15049;SDS011;7622;42.724;23.250;2023-12-20T06:27:38;58.53;;;19.57;;
15049;SDS011;7622;42.724;23.250;2023-12-20T06:30:07;66.73;;;17.80;;
15049;SDS011;7622;42.724;23.250;2023-12-20T06:32:35;41.70;;;18.50;;
15049;SDS011;7622;42.724;23.250;2023-12-20T06:35:03;89.47;;;18.60;;
15049;SDS011;7622;42.724;23.250;2023-12-20T06:37:31;79.73;;;20.77;;
15049;SDS011;7622;42.724;23.250;2023-12-20T06:39:59;69.57;;;20.53;;
15049;SDS011;7622;42.724;23.250;2023-12-20T06:42:25;82.17;;;21.93;;
15049;SDS011;7622;42.724;23.250;2023-12-20T06:44:52;84.17;;;22.37;;
15049;SDS011;7622;42.724;23.250;2023-12-20T06:47:19;80.47;;;23.40;;
15049;SDS011;7622;42.724;23.250;2023-12-20T06:49:46;71.17;;;22.43;;
15049;SDS011;7622;42.724;23.250;2023-12-20T06:52:13;60.53;;;22.63;;
15049;SDS011;7622;42.724;23.250;2023-12-20T06:54:40;62.77;;;22.83;;
15049;SDS011;7622;42.724;23.250;2023-12-20T06:57:08;51.60;;;20.80;;
15049;SDS011;7622;42.724;23.250;2023-12-20T06:59:37;51.63;;;21.43;;
15049;SDS011;7622;42.724;23.250;2023-12-20T07:02:05;52.37;;;21.30;;
15049;SDS011;7622;42.724;23.250;2023-12-20T07:04:31;66.23;;;24.80;;
15049;SDS011;7622;42.724;23.250;2023-12-20T07:06:58;70.53;;;25.40;;
15049;SDS011;7622;42.724;23.250;2023-12-20T07:09:25;56.93;;;23.90;;
15049;SDS011;7622;42.724;23.250;2023-12-20T07:11:52;76.13;;;25.20;;
15049;SDS011;7622;42.724;23.250;2023-12-20T07:14:20;72.57;;;28.20;;
15049;SDS011;7622;42.724;23.250;2023-12-20T07:16:47;61.53;;;25.33;;
15049;SDS011;7622;42.724;23.250;2023-12-20T07:19:14;72.57;;;28.63;;
15049;SDS011;7622;42.724;23.250;2023-12-20T07:21:41;75.00;;;30.07;;
15049;SDS011;7622;42.724;23.250;2023-12-20T07:24:08;70.40;;;30.90;;
15049;SDS011;7622;42.724;23.250;2023-12-20T07:26:34;69.97;;;29.63;;
15049;SDS011;7622;42.724;23.250;2023-12-20T07:29:03;94.20;;;32.47;;
15049;SDS011;7622;42.724;23.250;2023-12-20T07:31:31;84.47;;;34.87;;
15049;SDS011;7622;42.724;23.250;2023-12-20T07:33:57;89.93;;;32.30;;
15049;SDS011;7622;42.724;23.250;2023-12-20T07:36:24;84.97;;;31.07;;
15049;SDS011;7622;42.724;23.250;2023-12-20T07:38:51;84.03;;;30.87;;
15049;SDS011;7622;42.724;23.250;2023-12-20T07:41:18;67.37;;;28.67;;
15049;SDS011;7622;42.724;23.250;2023-12-20T07:43:49;71.53;;;29.67;;
15049;SDS011;7622;42.724;23.250;2023-12-20T07:46:19;84.70;;;32.77;;
15049;SDS011;7622;42.724;23.250;2023-12-20T07:48:49;93.93;;;31.37;;
15049;SDS011;7622;42.724;23.250;2023-12-20T07:51:15;70.70;;;28.90;;
15049;SDS011;7622;42.724;23.250;2023-12-20T07:53:42;73.40;;;28.17;;
15049;SDS011;7622;42.724;23.250;2023-12-20T07:56:15;70.57;;;28.17;;
15049;SDS011;7622;42.724;23.250;2023-12-20T07:58:42;75.00;;;29.77;;
15049;SDS011;7622;42.724;23.250;2023-12-20T08:01:09;70.43;;;28.40;;
15049;SDS011;7622;42.724;23.250;2023-12-20T08:03:36;67.57;;;27.97;;
15049;SDS011;7622;42.724;23.250;2023-12-20T08:06:05;59.53;;;25.90;;
15049;SDS011;7622;42.724;23.250;2023-12-20T08:08:31;56.83;;;24.80;;
15049;SDS011;7622;42.724;23.250;2023-12-20T08:10:58;67.83;;;25.00;;
15049;SDS011;7622;42.724;23.250;2023-12-20T08:13:25;95.43;;;26.27;;
15049;SDS011;7622;42.724;23.250;2023-12-20T08:15:52;58.63;;;25.17;;
15049;SDS011;7622;42.724;23.250;2023-12-20T08:18:21;73.67;;;27.00;;
15049;SDS011;7622;42.724;23.250;2023-12-20T08:20:47;61.43;;;26.23;;
15049;SDS011;7622;42.724;23.250;2023-12-20T08:23:16;69.50;;;26.83;;
15049;SDS011;7622;42.724;23.250;2023-12-20T08:25:42;63.73;;;26.90;;
15049;SDS011;7622;42.724;23.250;2023-12-20T08:28:09;58.63;;;27.63;;
15049;SDS011;7622;42.724;23.250;2023-12-20T08:30:36;69.43;;;27.23;;
15049;SDS011;7622;42.724;23.250;2023-12-20T08:33:03;60.83;;;27.77;;
15049;SDS011;7622;42.724;23.250;2023-12-20T08:35:30;61.57;;;27.73;;
15049;SDS011;7622;42.724;23.250;2023-12-20T08:37:57;64.67;;;28.80;;
15049;SDS011;7622;42.724;23.250;2023-12-20T08:40:25;73.33;;;29.20;;
15049;SDS011;7622;42.724;23.250;2023-12-20T08:42:52;74.87;;;30.93;;
15049;SDS011;7622;42.724;23.250;2023-12-20T08:45:19;76.40;;;31.03;;
15049;SDS011;7622;42.724;23.250;2023-12-20T08:47:46;75.93;;;31.47;;
15049;SDS011;7622;42.724;23.250;2023-12-20T08:50:13;80.97;;;31.97;;
15049;SDS011;7622;42.724;23.250;2023-12-20T08:52:40;84.57;;;34.03;;
15049;SDS011;7622;42.724;23.250;2023-12-20T08:55:07;80.67;;;35.03;;
15049;SDS011;7622;42.724;23.250;2023-12-20T08:57:36;96.67;;;36.27;;
15049;SDS011;7622;42.724;23.250;2023-12-20T09:00:03;90.23;;;35.63;;
15049;SDS011;7622;42.724;23.250;2023-12-20T09:02:32;83.93;;;34.50;;
15049;SDS011;7622;42.724;23.250;2023-12-20T09:05:01;91.17;;;36.73;;
15049;SDS011;7622;42.724;23.250;2023-12-20T09:07:28;92.50;;;37.30;;
15049;SDS011;7622;42.724;23.250;2023-12-20T09:09:56;91.23;;;35.70;;
15049;SDS011;7622;42.724;23.250;2023-12-20T09:12:24;96.57;;;37.80;;
15049;SDS011;7622;42.724;23.250;2023-12-20T09:14:57;105.03;;;39.40;;
15049;SDS011;7622;42.724;23.250;2023-12-20T09:17:28;106.17;;;39.97;;
15049;SDS011;7622;42.724;23.250;2023-12-20T09:19:55;110.83;;;39.70;;
15049;SDS011;7622;42.724;23.250;2023-12-20T09:22:21;105.27;;;40.23;;
15049;SDS011;7622;42.724;23.250;2023-12-20T09:24:48;104.23;;;40.83;;
15049;SDS011;7622;42.724;23.250;2023-12-20T09:27:15;99.27;;;41.03;;
15049;SDS011;7622;42.724;23.250;2023-12-20T09:29:42;105.17;;;40.17;;
15049;SDS011;7622;42.724;23.250;2023-12-20T09:32:10;114.43;;;45.80;;
15049;SDS011;7622;42.724;23.250;2023-12-20T09:34:36;112.40;;;46.57;;
15049;SDS011;7622;42.724;23.250;2023-12-20T09:37:03;125.23;;;48.27;;
15049;SDS011;7622;42.724;23.250;2023-12-20T09:39:31;128.90;;;47.20;;
15049;SDS011;7622;42.724;23.250;2023-12-20T09:42:01;116.47;;;43.37;;
15049;SDS011;7622;42.724;23.250;2023-12-20T09:44:30;114.57;;;46.43;;
15049;SDS011;7622;42.724;23.250;2023-12-20T09:46:58;124.50;;;45.70;;
15049;SDS011;7622;42.724;23.250;2023-12-20T09:49:29;130.00;;;46.57;;
15049;SDS011;7622;42.724;23.250;2023-12-20T09:51:56;129.33;;;49.63;;
15049;SDS011;7622;42.724;23.250;2023-12-20T09:54:23;133.77;;;50.47;;
15049;SDS011;7622;42.724;23.250;2023-12-20T09:56:51;132.27;;;52.17;;
15049;SDS011;7622;42.724;23.250;2023-12-20T09:59:18;126.80;;;51.70;;
15049;SDS011;7622;42.724;23.250;2023-12-20T10:01:45;133.67;;;55.13;;
15049;SDS011;7622;42.724;23.250;2023-12-20T10:04:12;165.60;;;62.60;;
15049;SDS011;7622;42.724;23.250;2023-12-20T10:06:40;162.67;;;62.90;;
15049;SDS011;7622;42.724;23.250;2023-12-20T10:09:09;164.37;;;67.17;;
15049;SDS011;7622;42.724;23.250;2023-12-20T10:11:36;178.40;;;65.10;;
15049;SDS011;7622;42.724;23.250;2023-12-20T10:14:03;170.97;;;67.20;;
15049;SDS011;7622;42.724;23.250;2023-12-20T10:16:31;170.13;;;61.10;;
15049;SDS011;7622;42.724;23.250;2023-12-20T10:18:59;157.13;;;63.07;;
15049;SDS011;7622;42.724;23.250;2023-12-20T10:21:27;151.57;;;61.53;;
15049;SDS011;7622;42.724;23.250;2023-12-20T10:23:55;154.70;;;60.23;;
15049;SDS011;7622;42.724;23.250;2023-12-20T10:26:24;160.00;;;63.30;;
15049;SDS011;7622;42.724;23.250;2023-12-20T10:28:53;143.83;;;59.13;;
15049;SDS011;7622;42.724;23.250;2023-12-20T10:31:27;130.87;;;54.73;;
15049;SDS011;7622;42.724;23.250;2023-12-20T10:33:55;143.63;;;57.33;;
15049;SDS011;7622;42.724;23.250;2023-12-20T10:36:24;137.63;;;60.30;;
15049;SDS011;7622;42.724;23.250;2023-12-20T10:38:53;136.03;;;56.63;;
15049;SDS011;7622;42.724;23.250;2023-12-20T10:41:24;123.27;;;53.07;;
15049;SDS011;7622;42.724;23.250;2023-12-20T10:43:53;141.70;;;54.77;;
15049;SDS011;7622;42.724;23.250;2023-12-20T10:46:22;130.53;;;54.03;;
15049;SDS011;7622;42.724;23.250;2023-12-20T10:48:51;124.33;;;52.50;;
15049;SDS011;7622;42.724;23.250;2023-12-20T10:51:20;152.30;;;66.07;;
15049;SDS011;7622;42.724;23.250;2023-12-20T10:53:48;142.80;;;65.13;;
15049;SDS011;7622;42.724;23.250;2023-12-20T10:56:16;137.67;;;63.80;;
15049;SDS011;7622;42.724;23.250;2023-12-20T10:58:44;146.90;;;58.17;;
15049;SDS011;7622;42.724;23.250;2023-12-20T11:01:12;120.50;;;54.60;;
15049;SDS011;7622;42.724;23.250;2023-12-20T11:03:48;129.17;;;56.50;;
15049;SDS011;7622;42.724;23.250;2023-12-20T11:06:19;128.70;;;55.17;;
15049;SDS011;7622;42.724;23.250;2023-12-20T11:08:58;124.07;;;54.20;;
15049;SDS011;7622;42.724;23.250;2023-12-20T11:11:35;133.07;;;57.70;;
15049;SDS011;7622;42.724;23.250;2023-12-20T11:14:12;134.10;;;56.50;;
15049;SDS011;7622;42.724;23.250;2023-12-20T11:16:43;123.50;;;56.50;;
15049;SDS011;7622;42.724;23.250;2023-12-20T11:19:10;113.17;;;53.17;;
15049;SDS011;7622;42.724;23.250;2023-12-20T11:21:39;115.20;;;52.67;;
15049;SDS011;7622;42.724;23.250;2023-12-20T11:24:06;126.97;;;57.03;;
15049;SDS011;7622;42.724;23.250;2023-12-20T11:26:33;131.93;;;59.33;;
15049;SDS011;7622;42.724;23.250;2023-12-20T11:32:04;136.00;;;58.60;;
15049;SDS011;7622;42.724;23.250;2023-12-20T11:34:55;137.27;;;60.47;;
15049;SDS011;7622;42.724;23.250;2023-12-20T11:37:28;141.43;;;64.13;;
15049;SDS011;7622;42.724;23.250;2023-12-20T11:40:00;161.80;;;72.43;;
15049;SDS011;7622;42.724;23.250;2023-12-20T11:42:27;180.23;;;79.33;;
15049;SDS011;7622;42.724;23.250;2023-12-20T11:44:54;169.20;;;75.50;;
15049;SDS011;7622;42.724;23.250;2023-12-20T11:47:23;176.97;;;82.37;;
15049;SDS011;7622;42.724;23.250;2023-12-20T11:49:51;177.33;;;80.17;;
15049;SDS011;7622;42.724;23.250;2023-12-20T11:52:18;175.83;;;78.83;;
15049;SDS011;7622;42.724;23.250;2023-12-20T11:54:45;172.87;;;77.93;;
15049;SDS011;7622;42.724;23.250;2023-12-20T11:57:13;163.10;;;73.10;;
15049;SDS011;7622;42.724;23.250;2023-12-20T11:59:39;160.53;;;70.97;;
15049;SDS011;7622;42.724;23.250;2023-12-20T12:02:06;134.90;;;60.53;;
15049;SDS011;7622;42.724;23.250;2023-12-20T12:04:34;142.97;;;60.90;;
15049;SDS011;7622;42.724;23.250;2023-12-20T12:07:01;143.00;;;59.93;;
15049;SDS011;7622;42.724;23.250;2023-12-20T12:09:28;149.77;;;61.67;;
15049;SDS011;7622;42.724;23.250;2023-12-20T12:11:55;136.33;;;58.27;;
15049;SDS011;7622;42.724;23.250;2023-12-20T12:14:22;142.50;;;59.73;;
15049;SDS011;7622;42.724;23.250;2023-12-20T12:16:52;142.43;;;59.43;;
15049;SDS011;7622;42.724;23.250;2023-12-20T12:19:21;153.77;;;61.93;;
15049;SDS011;7622;42.724;23.250;2023-12-20T12:21:50;152.33;;;64.23;;
15049;SDS011;7622;42.724;23.250;2023-12-20T12:24:19;152.07;;;64.10;;
15049;SDS011;7622;42.724;23.250;2023-12-20T12:26:49;166.07;;;65.53;;
15049;SDS011;7622;42.724;23.250;2023-12-20T12:29:16;172.27;;;72.27;;
15049;SDS011;7622;42.724;23.250;2023-12-20T12:31:43;167.27;;;74.97;;
15049;SDS011;7622;42.724;23.250;2023-12-20T12:34:10;177.00;;;75.80;;
15049;SDS011;7622;42.724;23.250;2023-12-20T12:36:37;190.67;;;80.53;;
15049;SDS011;7622;42.724;23.250;2023-12-20T12:39:05;193.30;;;82.57;;
15049;SDS011;7622;42.724;23.250;2023-12-20T12:41:32;194.53;;;84.93;;
15049;SDS011;7622;42.724;23.250;2023-12-20T12:43:59;195.90;;;87.13;;
15049;SDS011;7622;42.724;23.250;2023-12-20T12:46:26;217.60;;;92.97;;
15049;SDS011;7622;42.724;23.250;2023-12-20T12:48:52;197.23;;;90.43;;
15049;SDS011;7622;42.724;23.250;2023-12-20T12:51:19;207.00;;;91.70;;
15049;SDS011;7622;42.724;23.250;2023-12-20T12:53:46;216.30;;;93.50;;
15049;SDS011;7622;42.724;23.250;2023-12-20T12:56:15;211.37;;;92.27;;
15049;SDS011;7622;42.724;23.250;2023-12-20T12:58:41;212.33;;;93.73;;
15049;SDS011;7622;42.724;23.250;2023-12-20T13:01:08;217.70;;;95.33;;
15049;SDS011;7622;42.724;23.250;2023-12-20T13:03:35;230.73;;;96.63;;
15049;SDS011;7622;42.724;23.250;2023-12-20T13:06:02;229.77;;;98.93;;
15049;SDS011;7622;42.724;23.250;2023-12-20T13:08:31;230.73;;;98.57;;
15049;SDS011;7622;42.724;23.250;2023-12-20T13:10:58;219.63;;;94.53;;
15049;SDS011;7622;42.724;23.250;2023-12-20T13:13:27;232.10;;;102.13;;
15049;SDS011;7622;42.724;23.250;2023-12-20T13:15:54;231.43;;;96.00;;
15049;SDS011;7622;42.724;23.250;2023-12-20T13:18:21;238.47;;;99.57;;
15049;SDS011;7622;42.724;23.250;2023-12-20T13:20:47;234.03;;;101.27;;
15049;SDS011;7622;42.724;23.250;2023-12-20T13:23:14;225.90;;;98.40;;
15049;SDS011;7622;42.724;23.250;2023-12-20T13:25:43;243.77;;;100.57;;
15049;SDS011;7622;42.724;23.250;2023-12-20T13:28:11;237.27;;;99.80;;
15049;SDS011;7622;42.724;23.250;2023-12-20T13:30:39;246.67;;;102.23;;
15049;SDS011;7622;42.724;23.250;2023-12-20T13:33:06;242.50;;;94.70;;
15049;SDS011;7622;42.724;23.250;2023-12-20T13:35:33;238.93;;;98.00;;
15049;SDS011;7622;42.724;23.250;2023-12-20T13:38:00;252.57;;;101.00;;
15049;SDS011;7622;42.724;23.250;2023-12-20T13:40:27;255.67;;;97.40;;
15049;SDS011;7622;42.724;23.250;2023-12-20T13:42:54;221.90;;;90.33;;
15049;SDS011;7622;42.724;23.250;2023-12-20T13:45:21;234.93;;;91.37;;
15049;SDS011;7622;42.724;23.250;2023-12-20T13:47:51;221.87;;;90.50;;
15049;SDS011;7622;42.724;23.250;2023-12-20T13:50:18;232.17;;;93.47;;
15049;SDS011;7622;42.724;23.250;2023-12-20T13:52:45;230.20;;;90.33;;
15049;SDS011;7622;42.724;23.250;2023-12-20T13:55:12;229.40;;;92.40;;
15049;SDS011;7622;42.724;23.250;2023-12-20T13:57:39;251.90;;;97.30;;
15049;SDS011;7622;42.724;23.250;2023-12-20T14:00:07;242.27;;;94.97;;
15049;SDS011;7622;42.724;23.250;2023-12-20T14:02:39;239.83;;;96.90;;
15049;SDS011;7622;42.724;23.250;2023-12-20T14:05:08;239.20;;;90.33;;
15049;SDS011;7622;42.724;23.250;2023-12-20T14:07:35;242.43;;;95.63;;
15049;SDS011;7622;42.724;23.250;2023-12-20T14:10:02;240.37;;;93.30;;
15049;SDS011;7622;42.724;23.250;2023-12-20T14:12:30;242.50;;;97.37;;
15049;SDS011;7622;42.724;23.250;2023-12-20T14:15:00;270.10;;;105.83;;
15049;SDS011;7622;42.724;23.250;2023-12-20T14:17:27;269.87;;;100.93;;
15049;SDS011;7622;42.724;23.250;2023-12-20T14:19:55;272.33;;;104.40;;
15049;SDS011;7622;42.724;23.250;2023-12-20T14:22:26;324.63;;;118.30;;